Terminal Aerodrome Forecast
Issued by NWS Omaha/Valley, NE

Current Version | Previous Version | Text Only | Print | Product List | Glossary On
Versions: 1 2 3 4 5 6 7 8 9 10 11 12 13 14 15 16 17 18
000
FTUS43 KOAX 301135
TAFOMA
TAF
KOMA 301135Z 3012/3112 04003KT P6SM SCT005 OVC120
     FM301400 04005KT P6SM -SHRA OVC090
      TEMPO 3015/3018 4SM -SHRA BR OVC040
     FM302000 05006KT P6SM OVC100
     FM310600 01004KT 4SM BR SCT120=

USA.gov is the U.S. government's official web portal to all federal, state and local government web resources and services.